createdAt,value
2019-01-17T00:02:11.143Z,6.90
2019-01-17T00:04:57.010Z,6.80
2019-01-17T00:07:43.907Z,6.90
2019-01-17T00:10:29.902Z,6.80
2019-01-17T00:13:06.719Z,6.80
2019-01-17T00:15:54.019Z,6.80
2019-01-17T00:18:27.738Z,6.70
2019-01-17T00:21:07.756Z,6.60
2019-01-17T00:23:48.327Z,6.60
2019-01-17T00:26:28.194Z,6.50
2019-01-17T00:28:59.262Z,6.50
2019-01-17T00:31:32.703Z,6.50
2019-01-17T00:34:21.543Z,6.50
2019-01-17T00:37:08.872Z,6.50
2019-01-17T00:39:39.861Z,6.50
2019-01-17T00:42:16.310Z,6.60
2019-01-17T00:45:07.295Z,6.50
2019-01-17T00:47:41.273Z,6.50
2019-01-17T00:50:24.166Z,6.50
2019-01-17T00:53:11.211Z,6.50
2019-01-17T00:55:58.285Z,6.50
2019-01-17T00:58:29.302Z,6.50
2019-01-17T01:01:09.458Z,6.40
2019-01-17T01:03:46.237Z,6.40
2019-01-17T01:06:17.237Z,6.40
2019-01-17T01:08:56.797Z,6.40
2019-01-17T01:11:27.856Z,6.40
2019-01-17T01:13:58.964Z,6.40
2019-01-17T01:16:48.807Z,6.40
2019-01-17T01:19:22.831Z,6.40
2019-01-17T01:22:08.636Z,6.30
2019-01-17T01:24:55.431Z,6.30
2019-01-17T01:27:41.530Z,6.40
2019-01-17T01:30:18.121Z,6.40
2019-01-17T01:33:01.189Z,6.50
2019-01-17T01:35:34.774Z,6.50
2019-01-17T01:38:17.824Z,6.50
2019-01-17T01:40:48.840Z,6.50
2019-01-17T01:43:19.830Z,6.60
2019-01-17T01:45:53.602Z,6.70
2019-01-17T01:48:24.610Z,6.70
2019-01-17T01:51:01.028Z,6.70
2019-01-17T01:53:30.387Z,6.70
2019-01-17T01:55:59.771Z,6.70
2019-01-17T01:58:29.195Z,6.80
2019-01-17T02:00:58.631Z,6.80
2019-01-17T02:03:28.001Z,6.80
2019-01-17T02:05:57.356Z,6.80
2019-01-17T02:08:26.733Z,6.70
2019-01-17T02:10:56.082Z,6.60
2019-01-17T02:13:25.446Z,6.60
2019-01-17T02:15:54.815Z,6.60
2019-01-17T02:18:24.172Z,6.60
2019-01-17T02:20:53.565Z,6.60
2019-01-17T02:23:22.990Z,6.60
2019-01-17T02:25:52.410Z,6.60
2019-01-17T02:28:21.827Z,6.60
2019-01-17T02:30:51.190Z,6.60
2019-01-17T02:33:20.562Z,6.60
2019-01-17T02:35:49.981Z,6.60
2019-01-17T02:38:19.359Z,6.60
2019-01-17T02:40:48.768Z,6.50
2019-01-17T02:43:18.141Z,6.60
2019-01-17T02:45:47.496Z,6.50
2019-01-17T02:48:16.887Z,6.50
2019-01-17T02:50:46.244Z,6.40
2019-01-17T02:53:15.665Z,6.40
2019-01-17T02:55:45.041Z,6.40
2019-01-17T02:58:14.389Z,6.40
2019-01-17T03:00:43.760Z,6.40
2019-01-17T03:03:13.115Z,6.40
2019-01-17T03:05:42.492Z,6.40
2019-01-17T03:08:11.844Z,6.40
2019-01-17T03:10:41.236Z,6.40
2019-01-17T03:13:10.642Z,6.40
2019-01-17T03:15:39.987Z,6.40
2019-01-17T03:18:09.503Z,6.40
2019-01-17T03:20:38.865Z,6.40
2019-01-17T03:23:08.239Z,6.40
2019-01-17T03:25:37.662Z,6.40
2019-01-17T03:28:07.021Z,6.30
2019-01-17T03:30:36.398Z,6.30
2019-01-17T03:33:05.839Z,6.30
2019-01-17T03:35:35.194Z,6.30
2019-01-17T03:38:04.543Z,6.30
2019-01-17T03:40:33.954Z,6.30
2019-01-17T03:43:03.399Z,6.30
2019-01-17T03:45:32.847Z,6.30
2019-01-17T03:48:02.277Z,6.30
2019-01-17T03:50:31.719Z,6.30
2019-01-17T03:53:01.070Z,6.30
2019-01-17T03:55:30.412Z,6.30
2019-01-17T03:57:59.844Z,6.30
2019-01-17T04:00:29.194Z,6.30
2019-01-17T04:02:58.484Z,6.40
2019-01-17T04:05:27.840Z,6.40
2019-01-17T04:07:57.248Z,6.40
2019-01-17T04:10:26.607Z,6.40
2019-01-17T04:12:55.964Z,6.30
2019-01-17T04:15:25.323Z,6.30
2019-01-17T04:17:54.686Z,6.30
2019-01-17T04:20:24.055Z,6.40
2019-01-17T04:22:53.404Z,6.40
2019-01-17T04:25:22.776Z,6.40
2019-01-17T04:27:52.147Z,6.40
2019-01-17T04:30:21.533Z,6.40
2019-01-17T04:32:50.875Z,6.40
2019-01-17T04:35:20.310Z,6.40
2019-01-17T04:37:49.663Z,6.50
2019-01-17T04:40:19.021Z,6.50
2019-01-17T04:42:48.384Z,6.50
2019-01-17T04:45:17.732Z,6.50
2019-01-17T04:47:47.124Z,6.50
2019-01-17T04:50:16.490Z,6.50
2019-01-17T04:52:45.921Z,6.50
2019-01-17T04:55:15.357Z,6.60
2019-01-17T04:57:44.730Z,6.50
2019-01-17T05:00:16.919Z,6.50
2019-01-17T05:02:46.277Z,6.50
2019-01-17T05:05:15.787Z,6.50
2019-01-17T05:07:45.137Z,6.50
2019-01-17T05:10:16.353Z,6.60
2019-01-17T05:12:45.703Z,6.60
2019-01-17T05:15:15.200Z,6.60
2019-01-17T05:17:44.640Z,6.60
2019-01-17T05:20:15.439Z,6.60
2019-01-17T05:22:44.976Z,6.60
2019-01-17T05:25:14.464Z,6.70
2019-01-17T05:27:43.827Z,6.60
2019-01-17T05:30:15.741Z,6.60
2019-01-17T05:32:45.173Z,6.60
2019-01-17T05:35:14.603Z,6.60
2019-01-17T05:37:44.107Z,6.60
2019-01-17T05:40:18.271Z,6.60
2019-01-17T05:42:47.692Z,6.50
2019-01-17T05:45:17.198Z,6.50
2019-01-17T05:47:46.549Z,6.50
2019-01-17T05:50:17.467Z,6.50
2019-01-17T05:52:46.896Z,6.50
2019-01-17T05:55:20.073Z,6.50
2019-01-17T05:57:47.343Z,6.50
2019-01-17T06:00:19.009Z,6.50
2019-01-17T06:02:50.108Z,6.50
2019-01-17T06:05:19.680Z,6.50
2019-01-17T06:07:49.188Z,6.50
2019-01-17T06:10:18.535Z,6.60
2019-01-17T06:12:49.913Z,6.60
2019-01-17T06:15:20.906Z,6.60
2019-01-17T06:17:50.297Z,6.60
2019-01-17T06:20:19.707Z,6.60
2019-01-17T06:22:49.073Z,6.60
2019-01-17T06:25:18.532Z,6.50
2019-01-17T06:27:47.908Z,6.50
2019-01-17T06:30:17.274Z,6.50
2019-01-17T06:32:46.644Z,6.50
2019-01-17T06:35:16.084Z,6.50
2019-01-17T06:37:45.536Z,6.50
2019-01-17T06:40:18.045Z,6.50
2019-01-17T06:42:49.551Z,6.50
2019-01-17T06:45:18.705Z,6.50
2019-01-17T06:47:48.224Z,6.50
2019-01-17T06:50:17.610Z,6.40
2019-01-17T06:52:47.045Z,6.50
2019-01-17T06:55:16.401Z,6.40
2019-01-17T06:57:45.772Z,6.50
2019-01-17T07:00:18.043Z,6.50
2019-01-17T07:02:47.499Z,6.50
2019-01-17T07:05:16.916Z,6.50
2019-01-17T07:07:46.328Z,6.50
2019-01-17T07:10:18.519Z,6.50
2019-01-17T07:12:47.842Z,6.50
2019-01-17T07:15:17.257Z,6.40
2019-01-17T07:17:46.631Z,6.40
2019-01-17T07:20:16.531Z,6.40
2019-01-17T07:22:45.889Z,6.40
2019-01-17T07:25:15.343Z,6.40
2019-01-17T07:27:44.648Z,6.40
2019-01-17T07:30:16.918Z,6.40
2019-01-17T07:32:46.204Z,6.30
2019-01-17T07:35:15.939Z,6.40
2019-01-17T07:37:45.435Z,6.40
2019-01-17T07:40:15.470Z,6.40
2019-01-17T07:42:44.992Z,6.40
2019-01-17T07:45:19.928Z,6.50
2019-01-17T07:47:49.295Z,6.50
2019-01-17T07:50:18.680Z,6.50
2019-01-17T07:52:48.111Z,6.60
2019-01-17T07:55:17.603Z,6.60
2019-01-17T07:57:46.983Z,6.60
2019-01-17T08:00:23.637Z,6.60
2019-01-17T08:02:53.050Z,6.60
2019-01-17T08:05:22.606Z,6.60
2019-01-17T08:07:52.073Z,6.50
2019-01-17T08:10:21.651Z,6.60
2019-01-17T08:12:51.162Z,6.60
2019-01-17T08:15:20.583Z,6.60
2019-01-17T08:17:50.022Z,6.60
2019-01-17T08:20:22.366Z,6.60
2019-01-17T08:22:51.709Z,6.70
2019-01-17T08:25:21.261Z,6.70
2019-01-17T08:27:50.838Z,6.70
2019-01-17T08:30:22.961Z,6.70
2019-01-17T08:32:52.578Z,6.70
2019-01-17T08:35:22.124Z,6.70
2019-01-17T08:37:51.865Z,6.70
2019-01-17T08:40:24.248Z,6.70
2019-01-17T08:42:53.677Z,6.60
2019-01-17T08:45:23.198Z,6.50
2019-01-17T08:47:52.588Z,6.40
2019-01-17T08:50:22.087Z,6.30
2019-01-17T08:52:51.463Z,6.40
2019-01-17T08:55:20.814Z,6.60
2019-01-17T08:57:50.166Z,6.80
2019-01-17T09:00:24.630Z,6.90
2019-01-17T09:02:53.971Z,6.90
2019-01-17T09:05:23.335Z,6.80
2019-01-17T09:07:52.725Z,6.80
2019-01-17T09:10:24.716Z,6.90
2019-01-17T09:12:54.086Z,7.00
2019-01-17T09:15:26.344Z,7.20
2019-01-17T09:17:55.843Z,7.30
2019-01-17T09:20:25.269Z,7.50
2019-01-17T09:22:54.696Z,7.60
2019-01-17T09:25:24.127Z,7.80
2019-01-17T09:27:53.483Z,7.80
2019-01-17T09:30:22.923Z,7.80
2019-01-17T09:32:52.353Z,7.80
2019-01-17T09:35:21.719Z,7.80
2019-01-17T09:37:51.143Z,7.80
2019-01-17T09:40:22.070Z,7.80
2019-01-17T09:42:51.420Z,7.80
2019-01-17T09:45:20.821Z,7.90
2019-01-17T09:47:50.258Z,7.90
2019-01-17T09:50:25.396Z,8.00
2019-01-17T09:52:56.374Z,8.00
2019-01-17T09:55:25.756Z,8.10
2019-01-17T09:57:55.138Z,8.20
2019-01-17T10:00:26.728Z,8.30
2019-01-17T10:02:56.185Z,8.40
2019-01-17T10:05:25.610Z,8.40
2019-01-17T10:07:55.323Z,8.20
2019-01-17T10:10:25.724Z,8.20
2019-01-17T10:12:55.178Z,8.40
2019-01-17T10:15:27.987Z,8.50
2019-01-17T10:18:12.384Z,8.60
2019-01-17T10:20:47.316Z,8.50
2019-01-17T10:23:19.754Z,8.40
2019-01-17T10:25:52.197Z,8.40
2019-01-17T10:28:24.683Z,8.50
2019-01-17T10:31:03.342Z,8.70
2019-01-17T10:33:41.257Z,8.70
2019-01-17T10:36:16.212Z,8.80
2019-01-17T10:39:04.115Z,8.90
2019-01-17T10:41:39.512Z,9.00
2019-01-17T10:44:14.974Z,9.20
2019-01-17T10:46:59.340Z,9.30
2019-01-17T10:49:31.783Z,9.90
2019-01-17T10:52:36.975Z,11.90
2019-01-17T10:55:21.376Z,12.50
2019-01-17T10:58:02.920Z,14.10
2019-01-17T11:00:46.934Z,14.60
2019-01-17T11:03:37.256Z,15.50
2019-01-17T11:06:21.295Z,14.40
2019-01-17T11:08:59.762Z,13.80
2019-01-17T11:11:51.383Z,11.60
2019-01-17T11:14:41.562Z,10.80
2019-01-17T11:17:16.834Z,10.90
2019-01-17T11:19:54.990Z,11.20
2019-01-17T11:23:03.319Z,13.10
2019-01-17T11:25:53.445Z,14.60
2019-01-17T11:28:34.644Z,14.90
2019-01-17T11:31:27.962Z,14.10
2019-01-17T11:34:09.346Z,11.20
2019-01-17T11:36:46.140Z,10.50
2019-01-17T11:39:21.950Z,9.60
2019-01-17T11:41:59.614Z,9.30
2019-01-17T11:44:39.198Z,9.30
2019-01-17T11:47:23.712Z,10.00
2019-01-17T11:50:05.276Z,10.90
2019-01-17T11:52:53.890Z,12.60
2019-01-17T11:55:59.157Z,14.70
2019-01-17T11:58:40.386Z,15.80
2019-01-17T12:01:39.832Z,14.50
2019-01-17T12:04:14.907Z,14.20
2019-01-17T12:06:44.316Z,12.40
2019-01-17T12:09:13.667Z,11.50
2019-01-17T12:11:43.098Z,12.80
2019-01-17T12:14:12.507Z,14.80
2019-01-17T12:16:41.949Z,13.60
2019-01-17T12:19:11.314Z,14.00
2019-01-17T12:21:40.673Z,13.90
2019-01-17T12:24:10.052Z,12.20
2019-01-17T12:26:39.398Z,10.90
2019-01-17T12:29:08.691Z,12.30
2019-01-17T12:31:38.069Z,13.80
2019-01-17T12:34:07.387Z,13.90
2019-01-17T12:36:36.843Z,15.30
2019-01-17T12:39:08.911Z,13.80
2019-01-17T12:41:38.431Z,13.80
2019-01-17T12:44:07.782Z,14.40
2019-01-17T12:46:37.229Z,14.80
2019-01-17T12:49:06.761Z,14.10
2019-01-17T12:51:36.143Z,13.90
2019-01-17T12:54:05.773Z,15.30
2019-01-17T12:56:35.070Z,16.40
2019-01-17T12:59:05.037Z,16.20
2019-01-17T13:01:34.413Z,15.50
2019-01-17T13:04:05.473Z,14.90
2019-01-17T13:06:34.864Z,15.30
2019-01-17T13:09:06.623Z,14.30
2019-01-17T13:11:35.978Z,13.00
2019-01-17T13:14:05.481Z,12.60
2019-01-17T13:16:34.835Z,11.20
2019-01-17T13:19:04.716Z,10.50
2019-01-17T13:21:35.655Z,10.10
2019-01-17T13:24:05.192Z,9.70
2019-01-17T13:26:34.583Z,9.60
2019-01-17T13:29:04.311Z,9.60
2019-01-17T13:31:33.687Z,9.30
2019-01-17T13:34:03.152Z,9.00
2019-01-17T13:36:32.680Z,9.10
2019-01-17T13:39:05.300Z,8.80
2019-01-17T13:41:34.931Z,8.60
2019-01-17T13:44:05.634Z,8.30
2019-01-17T13:46:35.478Z,8.80
2019-01-17T13:49:04.988Z,8.80
2019-01-17T13:51:34.359Z,8.60
2019-01-17T13:54:04.308Z,8.60
2019-01-17T13:56:33.711Z,8.40
2019-01-17T13:59:03.145Z,8.40
2019-01-17T14:01:32.423Z,8.30
2019-01-17T14:04:01.781Z,8.30
2019-01-17T14:06:31.148Z,8.30
2019-01-17T14:09:00.588Z,8.40
2019-01-17T14:11:30.069Z,8.40
2019-01-17T14:13:59.951Z,8.40
2019-01-17T14:16:30.341Z,8.30
2019-01-17T14:18:59.771Z,8.20
2019-01-17T14:21:29.116Z,8.30
2019-01-17T14:23:58.498Z,8.20
2019-01-17T14:26:27.779Z,8.10
2019-01-17T14:28:57.356Z,8.10
2019-01-17T14:31:26.799Z,8.20
2019-01-17T14:33:56.171Z,8.10
2019-01-17T14:36:25.519Z,7.90
2019-01-17T14:38:54.883Z,8.00
2019-01-17T14:41:24.255Z,8.00
2019-01-17T14:43:53.611Z,8.00
2019-01-17T14:46:22.999Z,7.90
2019-01-17T14:48:52.455Z,7.10
2019-01-17T14:51:22.035Z,6.30
2019-01-17T14:53:51.451Z,5.90
2019-01-17T14:56:20.954Z,5.90
2019-01-17T14:58:50.326Z,5.90
2019-01-17T15:01:19.676Z,5.80
2019-01-17T15:03:49.067Z,5.80
2019-01-17T15:06:18.405Z,5.80
2019-01-17T15:08:47.796Z,5.80
2019-01-17T15:11:18.848Z,5.80
2019-01-17T15:13:48.773Z,5.80
2019-01-17T15:16:18.210Z,5.80
2019-01-17T15:18:47.555Z,5.80
2019-01-17T15:21:16.946Z,5.80
2019-01-17T15:23:46.300Z,5.70
2019-01-17T15:26:15.655Z,5.80
2019-01-17T15:28:45.039Z,5.90
2019-01-17T15:31:14.452Z,5.90
2019-01-17T15:33:43.832Z,5.90
2019-01-17T15:36:13.184Z,5.90
2019-01-17T15:38:42.647Z,5.90
2019-01-17T15:41:12.011Z,5.90
2019-01-17T15:43:41.371Z,5.90
2019-01-17T15:46:10.812Z,5.90
2019-01-17T15:48:40.194Z,5.90
2019-01-17T15:51:09.615Z,6.00
2019-01-17T15:53:39.031Z,6.00
2019-01-17T15:56:08.569Z,5.90
2019-01-17T15:58:38.025Z,5.90
2019-01-17T16:01:07.364Z,5.90
2019-01-17T16:03:36.736Z,5.90
2019-01-17T16:06:06.090Z,5.80
2019-01-17T16:08:35.531Z,5.70
2019-01-17T16:11:04.987Z,5.70
2019-01-17T16:13:34.665Z,5.60
2019-01-17T16:16:04.619Z,5.60
2019-01-17T16:18:34.043Z,5.60
2019-01-17T16:21:06.253Z,5.50
2019-01-17T16:23:35.655Z,5.50
2019-01-17T16:26:05.157Z,5.50
2019-01-17T16:28:34.820Z,5.50
2019-01-17T16:31:04.183Z,5.50
2019-01-17T16:33:33.531Z,5.60
2019-01-17T16:36:02.995Z,5.50
2019-01-17T16:38:32.437Z,5.40
2019-01-17T16:41:01.814Z,5.00
2019-01-17T16:43:31.210Z,4.70
2019-01-17T16:46:00.647Z,4.50
2019-01-17T16:48:29.935Z,4.40
2019-01-17T16:50:59.305Z,4.40
2019-01-17T16:53:34.244Z,4.30
2019-01-17T16:56:03.611Z,4.20
2019-01-17T16:58:32.987Z,4.20
2019-01-17T17:01:03.306Z,4.20
2019-01-17T17:03:32.725Z,4.40
2019-01-17T17:06:02.229Z,4.40
2019-01-17T17:08:31.775Z,4.30
2019-01-17T17:11:01.295Z,4.30
2019-01-17T17:13:30.646Z,4.30
2019-01-17T17:16:00.012Z,4.30
2019-01-17T17:18:29.487Z,4.30
2019-01-17T17:20:58.854Z,4.40
2019-01-17T17:23:28.362Z,4.40
2019-01-17T17:25:57.934Z,4.50
2019-01-17T17:28:27.370Z,4.40
2019-01-17T17:30:56.831Z,4.50
2019-01-17T17:33:26.292Z,4.50
2019-01-17T17:35:55.786Z,4.50
2019-01-17T17:38:25.139Z,4.50
2019-01-17T17:40:54.529Z,4.50
2019-01-17T17:43:23.944Z,4.50
2019-01-17T17:45:54.867Z,4.50
2019-01-17T17:48:24.296Z,4.50
2019-01-17T17:50:53.653Z,4.40
2019-01-17T17:53:22.987Z,4.40
2019-01-17T17:55:53.725Z,4.30
2019-01-17T17:58:23.340Z,4.20
2019-01-17T18:00:54.700Z,4.20
2019-01-17T18:03:24.263Z,4.20
2019-01-17T18:05:53.626Z,4.20
2019-01-17T18:08:22.998Z,4.20
2019-01-17T18:10:52.365Z,4.20
2019-01-17T18:13:21.990Z,4.10
2019-01-17T18:15:51.371Z,4.10
2019-01-17T18:18:20.824Z,4.20
2019-01-17T18:20:50.273Z,4.20
2019-01-17T18:23:19.615Z,4.30
2019-01-17T18:25:49.061Z,4.30
2019-01-17T18:28:18.419Z,4.30
2019-01-17T18:30:47.771Z,4.20
2019-01-17T18:33:17.146Z,4.20
2019-01-17T18:35:49.205Z,4.20
2019-01-17T18:38:18.597Z,4.00
2019-01-17T18:40:47.964Z,4.00
2019-01-17T18:43:17.318Z,4.00
2019-01-17T18:45:46.820Z,4.00
2019-01-17T18:48:16.240Z,3.90
2019-01-17T18:50:45.632Z,3.80
2019-01-17T18:53:16.096Z,3.80
2019-01-17T18:55:45.486Z,3.80
2019-01-17T18:58:15.601Z,3.80
2019-01-17T19:00:45.343Z,3.80
2019-01-17T19:03:14.701Z,3.70
2019-01-17T19:05:44.138Z,3.70
2019-01-17T19:08:13.560Z,3.60
2019-01-17T19:10:44.780Z,3.60
2019-01-17T19:13:14.251Z,3.70
2019-01-17T19:15:43.777Z,3.60
2019-01-17T19:18:13.532Z,3.60
2019-01-17T19:20:42.893Z,3.60
2019-01-17T19:23:12.255Z,3.60
2019-01-17T19:25:41.791Z,3.60
2019-01-17T19:28:12.906Z,3.50
2019-01-17T19:30:42.293Z,3.50
2019-01-17T19:33:11.663Z,3.50
2019-01-17T19:35:41.286Z,3.50
2019-01-17T19:38:10.810Z,3.40
2019-01-17T19:40:40.401Z,3.40
2019-01-17T19:43:09.838Z,3.40
2019-01-17T19:45:39.340Z,3.40
2019-01-17T19:48:08.955Z,3.40
2019-01-17T19:50:38.583Z,3.40
2019-01-17T19:53:09.562Z,3.40
2019-01-17T19:55:39.261Z,3.40
2019-01-17T19:58:08.908Z,3.40
2019-01-17T20:00:38.374Z,3.30
2019-01-17T20:03:07.988Z,3.30
2019-01-17T20:05:37.429Z,3.40
2019-01-17T20:08:07.509Z,3.40
2019-01-17T20:10:37.624Z,3.50
2019-01-17T20:13:07.079Z,3.40
2019-01-17T20:15:36.569Z,3.40
2019-01-17T20:18:07.672Z,3.40
2019-01-17T20:20:37.107Z,3.50
2019-01-17T20:23:06.493Z,3.40
2019-01-17T20:25:35.854Z,3.40
2019-01-17T20:28:05.300Z,3.50
2019-01-17T20:30:35.125Z,3.40
2019-01-17T20:33:04.851Z,3.40
2019-01-17T20:35:34.664Z,3.40
2019-01-17T20:38:04.701Z,3.30
2019-01-17T20:40:34.315Z,3.40
2019-01-17T20:43:03.734Z,3.40
2019-01-17T20:45:33.141Z,3.30
2019-01-17T20:48:02.537Z,3.30
2019-01-17T20:50:32.356Z,3.30
2019-01-17T20:53:01.741Z,3.20
2019-01-17T20:55:31.103Z,3.20
2019-01-17T20:58:00.498Z,3.20
2019-01-17T21:00:44.890Z,3.20
2019-01-17T21:03:16.204Z,3.20
2019-01-17T21:05:45.571Z,3.20
2019-01-17T21:08:15.094Z,3.20
2019-01-17T21:10:44.507Z,3.20
2019-01-17T21:13:13.892Z,3.30
2019-01-17T21:15:43.247Z,3.40
2019-01-17T21:18:12.608Z,3.40
2019-01-17T21:20:44.467Z,3.50
2019-01-17T21:23:13.820Z,3.60
2019-01-17T21:25:43.188Z,3.60
2019-01-17T21:28:12.546Z,3.70
2019-01-17T21:30:41.924Z,3.70
2019-01-17T21:33:11.295Z,3.70
2019-01-17T21:35:40.678Z,3.70
2019-01-17T21:38:10.046Z,3.70
2019-01-17T21:40:39.435Z,3.70
2019-01-17T21:43:08.793Z,3.70
2019-01-17T21:45:38.163Z,3.70
2019-01-17T21:48:07.672Z,3.60
2019-01-17T21:50:37.031Z,3.50
2019-01-17T21:53:06.403Z,3.40
2019-01-17T21:55:35.828Z,3.30
2019-01-17T21:58:05.201Z,3.40
2019-01-17T22:00:34.691Z,3.40
2019-01-17T22:03:04.146Z,3.50
2019-01-17T22:05:33.562Z,3.50
2019-01-17T22:08:03.033Z,3.50
2019-01-17T22:10:32.539Z,3.60
2019-01-17T22:13:02.025Z,3.50
2019-01-17T22:15:31.342Z,3.50
2019-01-17T22:18:00.730Z,3.50
2019-01-17T22:20:30.165Z,3.40
2019-01-17T22:22:59.530Z,3.50
2019-01-17T22:25:28.925Z,3.50
2019-01-17T22:27:58.286Z,3.50
2019-01-17T22:30:29.282Z,3.60
2019-01-17T22:32:58.671Z,3.50
2019-01-17T22:35:28.038Z,3.40
2019-01-17T22:37:57.444Z,3.40
2019-01-17T22:40:26.884Z,3.40
2019-01-17T22:42:56.259Z,3.40
2019-01-17T22:45:28.698Z,3.50
2019-01-17T22:47:58.110Z,3.60
2019-01-17T22:50:27.477Z,3.60
2019-01-17T22:52:58.472Z,3.50
2019-01-17T22:55:27.865Z,3.50
2019-01-17T22:57:57.226Z,3.50
2019-01-17T23:00:51.629Z,3.40
2019-01-17T23:03:23.623Z,3.50
2019-01-17T23:05:53.002Z,3.60
2019-01-17T23:08:22.373Z,3.60
2019-01-17T23:10:51.728Z,3.60
2019-01-17T23:13:21.134Z,3.60
2019-01-17T23:15:50.626Z,3.60
2019-01-17T23:18:20.008Z,3.70
2019-01-17T23:20:49.372Z,3.60
2019-01-17T23:23:18.742Z,3.60
2019-01-17T23:25:48.122Z,3.60
2019-01-17T23:28:17.503Z,3.60
2019-01-17T23:30:47.028Z,3.60
2019-01-17T23:33:16.578Z,3.60
2019-01-17T23:35:46.027Z,3.50
2019-01-17T23:38:15.584Z,3.50
2019-01-17T23:40:45.026Z,3.40
2019-01-17T23:43:14.416Z,3.40
2019-01-17T23:45:43.915Z,3.30
2019-01-17T23:48:13.254Z,3.30
2019-01-17T23:50:43.658Z,3.20
2019-01-17T23:53:13.093Z,3.20
2019-01-17T23:55:42.452Z,3.20
2019-01-17T23:58:11.883Z,3.20
